• Join FlightAware (Why Join?)
  • Login
  • US Flag 
10:24AM EDT


 

Airport Tracker/Info


-or-


 

Live Flight TrackerFlight Track Log ✈ JBU56 ✈ 20-Apr-2013 ✈ KJFK - KBTV

Flight Track Log - Related Links

Times and Time Zones

All times are in EDT time to prevent confusion due to time zone crossing. See the JBU56 flight status page for this flight to view local times or setup timezone preferences in your user account.

Time Position Orientation Groundspeed Altitude Reporting Facility
EDT Latitude Longitude Course Direction KTS MPH feet Rate Location/Type
10:09AM 40.6333 -73.8667 18° North 187 215 2,600  Level New York TRACON
10:10AM 40.9108 -73.6196 21° North  Level FlightAware Approximate
10:10AM 40.5833 -73.8667 180° South 273 314 4,800  Level New York TRACON
10:11AM 41.0094 -73.5703 21° North  Level FlightAware Approximate
10:11AM 40.5833 -73.7667 90° East 291 335 5,300  Level New York TRACON
10:12AM 41.1039 -73.5086 27° Northeast  Level FlightAware Approximate
10:12AM 40.6000 -73.6667 78° East 323 372 8,000  Level New York TRACON
10:13AM 41.1996 -73.4502 21° North  Level FlightAware Approximate
10:14AM 41.2945 -73.3952 18° North  Level FlightAware Approximate
10:14AM 40.7636 -73.5061 37° Northeast 375 432 11,800  Level Boston Center
10:15AM 40.8764 -73.4778 11° North 381 438 13,100 1,740 Climbing Boston Center
10:16AM 40.9914 -73.4464 12° North 392 451 15,300 2,040 Climbing Boston Center
10:17AM 41.1103 -73.4181 10° North 418 481 17,200 1,740 Climbing Boston Center
10:18AM 41.2231 -73.3867 12° North 451 519 18,800 1,800 Climbing Boston Center
10:19AM 41.3653 -73.3444 13° North 457 526 20,800 1,080 Climbing Boston Center
10:20AM 41.4928 -73.2881 18° North 469 540 21,000 60 Climbing Boston Center
10:21AM 41.5808 -73.1894 40° Northeast 455 524 21,000  Level Boston Center
10:22AM 41.6981 -73.1381 18° North 455 524 21,000  Level Boston Center
10:23AM 41.8231 -73.1422 359° North 438 504 21,000  Level Boston Center
10:24AM 41.9542 -73.1436 360° North 450 518 21,000  Level Boston Center
10:25AM 42.0856 -73.1450 360° North 462 532 21,000  Level Boston Center
10:26AM 42.2211 -73.1467 359° North 474 545 21,000  Level Boston Center
10:27AM 42.3753 -73.1397 North 487 560 21,000  Level Boston Center
10:28AM 42.5108 -73.1442 359° North 492 566 21,000  Level Boston Center
10:29AM 42.6358 -73.1483 359° North 492 566 21,000  Level Boston Center
10:30AM 42.7692 -73.1472 360° North 492 566 21,000  Level Boston Center
10:31AM 42.9047 -73.1486 360° North 492 566 21,000  Level Boston Center
10:32AM 43.0422 -73.1475 360° North 492 566 21,000  Level Boston Center
10:33AM 43.1775 -73.1492 359° North 492 566 21,000  Level Boston Center
10:34AM 43.3153 -73.1506 360° North 492 566 21,000 -600 Level Boston Center
10:35AM 43.4486 -73.1464 North 486 559 19,800 -1,800 Descending Boston Center
10:36AM 43.5778 -73.1481 359° North 471 542 17,500 -2,280 Descending Boston Center
10:37AM 43.7028 -73.1494 360° North 454 522 15,300 -2,100 Descending Boston Center
10:38AM 43.8258 -73.1508 360° North 446 513 13,300 -1,800 Descending Boston Center
10:39AM 43.9342 -73.1522 359° North 407 468 11,800 -1,260 Descending Boston Center
10:40AM 44.0319 -73.1506 North 362 417 10,800 -1,380 Descending Boston Center
10:41AM 44.1133 -73.1572 357° North 308 354 9,100 -1,920 Descending Boston Center
10:42AM 44.1881 -73.1725 352° North 282 325 7,000 -2,040 Descending Boston Center
10:43AM 44.2633 -73.1531 10° North 257 296 5,100 -1,500 Descending Boston Center
10:44AM 44.3178 -73.0986 36° Northeast 240 276 4,100 -600 Descending Boston Center
10:45AM 44.3661 -73.0442 39° Northeast 229 264 4,000 -600 Descending Boston Center
10:46AM 44.4158 -73.0592 348° North 162 186 2,800 -1,320 Descending Boston Center
10:47AM 44.4447 -73.1089 309° West 140 161 1,200 -1,200 Descending Boston Center
10:48AM 44.4656 -73.1439 310° West 140 161 400 -420 Descending Boston Center
10:49AM 44.4800 -73.1675 311° West 125 144 400  Level Boston Center
10:50AM 44.4778 -73.1644 136° Southeast 81 93 400  Level Boston Center